Mechanicsburg, Pennsylvania
Current Conditions -  °F | °C
As of 8:56 PM on Tuesday 25 Nov 2014 (Local Time) from KCXY Reporting Station
Clear Clear  
Wind Chill: 39°   Ceiling: Unl
Heat Index: 39°   Visibility: 10mi
Dew Point: 31°   Wind: 3mph
Humidity: 73%   Direction: 240°WSW
Pressure: 30.12"   Gusts: NA
Location:  40.21°N, 77.01°W
Report Text: KCXY 260156Z AUTO 24003KT 10SM CLR 04/M01 A3012 RMK AO2 SLP202 T00391006
Loading
Personal Weather Stations






























Interactive Weather Map New forecast layout! Learn more

10-Day Weather Forecast

Advertisements
Track Severe Weather on mobile